sensor_id;sensor_type;location;lat;lon;timestamp;P1;durP1;ratioP1;P2;durP2;ratioP2
56519;SDS011;42420;53.586;10.052;2023-05-07T07:21:31;7.72;;;4.65;;
56519;SDS011;42420;53.586;10.052;2023-05-07T07:26:29;7.38;;;4.38;;
56519;SDS011;42420;53.586;10.052;2023-05-07T07:36:22;7.15;;;4.20;;
56519;SDS011;42420;53.586;10.052;2023-05-07T07:41:33;6.90;;;4.35;;
56519;SDS011;42420;53.586;10.052;2023-05-07T07:46:30;8.57;;;4.30;;
56519;SDS011;42420;53.586;10.052;2023-05-07T07:51:27;6.90;;;4.32;;
56519;SDS011;42420;53.586;10.052;2023-05-07T08:01:20;8.45;;;4.05;;
56519;SDS011;42420;53.586;10.052;2023-05-07T08:21:52;7.13;;;3.97;;
56519;SDS011;42420;53.586;10.052;2023-05-07T08:26:49;7.45;;;4.60;;
56519;SDS011;42420;53.586;10.052;2023-05-07T08:31:47;7.40;;;4.78;;
56519;SDS011;42420;53.586;10.052;2023-05-07T08:36:44;7.18;;;4.40;;
56519;SDS011;42420;53.586;10.052;2023-05-07T08:41:44;7.97;;;4.88;;
56519;SDS011;42420;53.586;10.052;2023-05-07T08:46:42;7.30;;;4.57;;
56519;SDS011;42420;53.586;10.052;2023-05-07T09:08:24;6.88;;;4.13;;
56519;SDS011;42420;53.586;10.052;2023-05-07T09:13:34;7.60;;;3.88;;
56519;SDS011;42420;53.586;10.052;2023-05-07T09:55:05;5.53;;;3.50;;
56519;SDS011;42420;53.586;10.052;2023-05-07T10:00:13;6.47;;;3.72;;
56519;SDS011;42420;53.586;10.052;2023-05-07T10:05:12;7.03;;;3.92;;
56519;SDS011;42420;53.586;10.052;2023-05-07T10:10:15;6.07;;;3.70;;
56519;SDS011;42420;53.586;10.052;2023-05-07T10:15:12;7.40;;;4.03;;
56519;SDS011;42420;53.586;10.052;2023-05-07T11:08:18;5.90;;;2.40;;
56519;SDS011;42420;53.586;10.052;2023-05-07T11:18:15;5.30;;;2.70;;
56519;SDS011;42420;53.586;10.052;2023-05-07T11:29:51;4.55;;;2.50;;
56519;SDS011;42420;53.586;10.052;2023-05-07T11:45:14;5.63;;;2.63;;
56519;SDS011;42420;53.586;10.052;2023-05-07T11:50:20;4.40;;;2.28;;
56519;SDS011;42420;53.586;10.052;2023-05-07T12:00:30;5.43;;;2.50;;
56519;SDS011;42420;53.586;10.052;2023-05-07T12:05:27;5.28;;;2.67;;
56519;SDS011;42420;53.586;10.052;2023-05-07T12:22:03;4.85;;;1.85;;
56519;SDS011;42420;53.586;10.052;2023-05-07T12:27:00;4.60;;;1.80;;
56519;SDS011;42420;53.586;10.052;2023-05-07T12:31:58;4.05;;;1.73;;
56519;SDS011;42420;53.586;10.052;2023-05-07T12:36:55;3.70;;;1.60;;
56519;SDS011;42420;53.586;10.052;2023-05-07T12:46:50;4.68;;;1.90;;
56519;SDS011;42420;53.586;10.052;2023-05-07T12:51:48;4.85;;;1.75;;
56519;SDS011;42420;53.586;10.052;2023-05-07T12:56:45;5.03;;;1.83;;
56519;SDS011;42420;53.586;10.052;2023-05-07T13:06:38;4.85;;;1.67;;
56519;SDS011;42420;53.586;10.052;2023-05-07T13:16:37;4.25;;;1.90;;
56519;SDS011;42420;53.586;10.052;2023-05-07T13:21:33;4.68;;;1.55;;
56519;SDS011;42420;53.586;10.052;2023-05-07T13:26:30;5.03;;;1.60;;
56519;SDS011;42420;53.586;10.052;2023-05-07T13:31:27;3.80;;;1.58;;
56519;SDS011;42420;53.586;10.052;2023-05-07T13:41:20;4.00;;;1.73;;
56519;SDS011;42420;53.586;10.052;2023-05-07T13:46:17;3.70;;;1.50;;
56519;SDS011;42420;53.586;10.052;2023-05-07T13:51:14;3.72;;;1.60;;
56519;SDS011;42420;53.586;10.052;2023-05-07T13:56:11;3.70;;;1.77;;
56519;SDS011;42420;53.586;10.052;2023-05-07T14:01:07;3.55;;;1.42;;
56519;SDS011;42420;53.586;10.052;2023-05-07T14:06:04;3.47;;;1.50;;
56519;SDS011;42420;53.586;10.052;2023-05-07T14:11:03;3.70;;;1.55;;
56519;SDS011;42420;53.586;10.052;2023-05-07T14:16:03;4.03;;;1.80;;
56519;SDS011;42420;53.586;10.052;2023-05-07T14:21:00;4.40;;;1.50;;
56519;SDS011;42420;53.586;10.052;2023-05-07T14:25:57;3.30;;;1.30;;
56519;SDS011;42420;53.586;10.052;2023-05-07T14:30:53;3.60;;;1.38;;
56519;SDS011;42420;53.586;10.052;2023-05-07T14:35:50;3.67;;;1.60;;
56519;SDS011;42420;53.586;10.052;2023-05-07T14:40:47;3.75;;;1.60;;
56519;SDS011;42420;53.586;10.052;2023-05-07T14:45:44;5.22;;;1.70;;
56519;SDS011;42420;53.586;10.052;2023-05-07T14:50:43;3.50;;;1.40;;
56519;SDS011;42420;53.586;10.052;2023-05-07T14:55:39;4.70;;;1.50;;
56519;SDS011;42420;53.586;10.052;2023-05-07T15:00:36;4.13;;;1.50;;
56519;SDS011;42420;53.586;10.052;2023-05-07T15:05:34;3.42;;;1.50;;
56519;SDS011;42420;53.586;10.052;2023-05-07T15:10:34;5.75;;;1.70;;
56519;SDS011;42420;53.586;10.052;2023-05-07T15:15:36;4.32;;;1.60;;
56519;SDS011;42420;53.586;10.052;2023-05-07T15:20:32;4.68;;;1.60;;
56519;SDS011;42420;53.586;10.052;2023-05-07T17:55:45;5.32;;;1.98;;
56519;SDS011;42420;53.586;10.052;2023-05-07T18:18:01;3.88;;;1.50;;
56519;SDS011;42420;53.586;10.052;2023-05-07T18:22:58;3.83;;;1.50;;
56519;SDS011;42420;53.586;10.052;2023-05-07T18:27:55;4.05;;;1.70;;
56519;SDS011;42420;53.586;10.052;2023-05-07T18:32:54;4.30;;;1.63;;
56519;SDS011;42420;53.586;10.052;2023-05-07T18:37:51;5.78;;;1.77;;
56519;SDS011;42420;53.586;10.052;2023-05-07T18:42:48;3.63;;;1.60;;
56519;SDS011;42420;53.586;10.052;2023-05-07T18:47:45;3.90;;;1.48;;
56519;SDS011;42420;53.586;10.052;2023-05-07T18:52:43;3.75;;;1.65;;
56519;SDS011;42420;53.586;10.052;2023-05-07T18:57:39;4.32;;;1.65;;
56519;SDS011;42420;53.586;10.052;2023-05-07T19:02:37;4.15;;;1.40;;
56519;SDS011;42420;53.586;10.052;2023-05-07T19:07:33;4.18;;;1.50;;
56519;SDS011;42420;53.586;10.052;2023-05-07T19:12:30;4.93;;;1.60;;
56519;SDS011;42420;53.586;10.052;2023-05-07T19:22:23;4.00;;;1.42;;
56519;SDS011;42420;53.586;10.052;2023-05-07T19:27:20;3.67;;;1.42;;
56519;SDS011;42420;53.586;10.052;2023-05-07T19:37:13;6.03;;;1.80;;
56519;SDS011;42420;53.586;10.052;2023-05-07T19:47:06;4.73;;;1.70;;
56519;SDS011;42420;53.586;10.052;2023-05-07T19:52:04;4.35;;;2.00;;
56519;SDS011;42420;53.586;10.052;2023-05-07T20:02:00;5.50;;;2.05;;
56519;SDS011;42420;53.586;10.052;2023-05-07T20:06:57;4.82;;;2.17;;
56519;SDS011;42420;53.586;10.052;2023-05-07T20:11:54;5.00;;;2.20;;
56519;SDS011;42420;53.586;10.052;2023-05-07T20:16:58;5.10;;;2.10;;
56519;SDS011;42420;53.586;10.052;2023-05-07T20:27:40;3.85;;;1.73;;
56519;SDS011;42420;53.586;10.052;2023-05-07T20:33:17;6.95;;;2.10;;
56519;SDS011;42420;53.586;10.052;2023-05-07T20:38:25;6.45;;;2.67;;
56519;SDS011;42420;53.586;10.052;2023-05-07T21:10:21;6.15;;;2.20;;
56519;SDS011;42420;53.586;10.052;2023-05-07T21:21:41;5.95;;;3.13;;
56519;SDS011;42420;53.586;10.052;2023-05-07T21:38:03;4.07;;;2.00;;
56519;SDS011;42420;53.586;10.052;2023-05-07T21:43:18;4.72;;;2.53;;
56519;SDS011;42420;53.586;10.052;2023-05-07T21:49:57;4.00;;;2.00;;
56519;SDS011;42420;53.586;10.052;2023-05-07T21:55:01;5.82;;;2.20;;
56519;SDS011;42420;53.586;10.052;2023-05-07T22:00:29;5.20;;;1.90;;
56519;SDS011;42420;53.586;10.052;2023-05-07T22:06:15;5.38;;;1.98;;
56519;SDS011;42420;53.586;10.052;2023-05-07T22:17:58;4.82;;;2.20;;
56519;SDS011;42420;53.586;10.052;2023-05-07T22:23:16;5.93;;;1.90;;
56519;SDS011;42420;53.586;10.052;2023-05-07T22:29:59;4.88;;;1.75;;
56519;SDS011;42420;53.586;10.052;2023-05-07T22:35:58;3.97;;;1.77;;
56519;SDS011;42420;53.586;10.052;2023-05-07T22:41:09;4.63;;;2.03;;
56519;SDS011;42420;53.586;10.052;2023-05-07T22:46:12;3.95;;;1.70;;
56519;SDS011;42420;53.586;10.052;2023-05-07T22:51:12;4.25;;;1.88;;
56519;SDS011;42420;53.586;10.052;2023-05-07T22:56:24;4.35;;;1.98;;
56519;SDS011;42420;53.586;10.052;2023-05-07T23:01:29;5.90;;;1.95;;
56519;SDS011;42420;53.586;10.052;2023-05-07T23:12:10;3.90;;;2.05;;
56519;SDS011;42420;53.586;10.052;2023-05-07T23:23:37;4.07;;;2.08;;
56519;SDS011;42420;53.586;10.052;2023-05-07T23:28:52;4.13;;;1.83;;
56519;SDS011;42420;53.586;10.052;2023-05-07T23:34:07;4.45;;;2.28;;
56519;SDS011;42420;53.586;10.052;2023-05-07T23:39:35;3.80;;;1.98;;
56519;SDS011;42420;53.586;10.052;2023-05-07T23:44:58;5.50;;;1.80;;
56519;SDS011;42420;53.586;10.052;2023-05-07T23:50:09;4.45;;;2.10;;
56519;SDS011;42420;53.586;10.052;2023-05-07T23:55:17;5.18;;;2.50;;
